Time;durP1;ratioP1;P1;durP2;ratioP2;P2;SDS_P1;SDS_P2;PMS_P1;PMS_P2;Temp;Humidity;BMP_temperature;BMP_pressure;BME280_temperature;BME280_humidity;BME280_pressure;Samples;Min_cycle;Max_cycle;Signal;HPM_P1;HPM_P2
2023/02/23 00:02:06;;;;;;;2.20;2.00;;;21.40;63.90;;;;;;4961466;28;20447;-89
2023/02/23 00:04:33;;;;;;;2.00;1.90;;;21.40;63.90;;;;;;4961342;28;20457;-88
2023/02/23 00:07:00;;;;;;;2.33;2.20;;;21.40;63.90;;;;;;4961449;29;20488;-95
2023/02/23 00:09:34;;;;;;;2.20;2.00;;;21.40;63.90;;;;;;4961359;29;20963;-89
2023/02/23 00:12:06;;;;;;;1.83;1.73;;;21.30;63.80;;;;;;4961488;28;20540;-89
2023/02/23 00:14:36;;;;;;;1.80;1.70;;;21.30;63.80;;;;;;4961343;29;20455;-93
2023/02/23 00:17:03;;;;;;;2.50;2.30;;;21.30;63.80;;;;;;4961301;29;21046;-88
2023/02/23 00:19:32;;;;;;;2.37;2.00;;;21.50;64.00;;;;;;4961413;29;20466;-88
2023/02/23 00:21:58;;;;;;;2.33;2.20;;;21.30;63.80;;;;;;4961537;29;20445;-88
2023/02/23 00:24:26;;;;;;;2.20;2.00;;;21.30;63.80;;;;;;4961401;28;20458;-88
2023/02/23 00:26:53;;;;;;;2.00;1.90;;;21.30;63.80;;;;;;4961122;28;20537;-92
2023/02/23 00:29:24;;;;;;;2.43;2.20;;;21.30;63.80;;;;;;4961250;28;20445;-93
2023/02/23 00:31:51;;;;;;;2.30;1.90;;;21.30;63.80;;;;;;4961281;28;20453;-89
2023/02/23 00:34:20;;;;;;;3.00;2.20;;;21.30;63.80;;;;;;4961163;28;20452;-88
2023/02/23 00:36:49;;;;;;;2.40;2.20;;;21.30;63.80;;;;;;4961047;29;20437;-88
2023/02/23 00:39:20;;;;;;;1.83;1.73;;;21.30;63.80;;;;;;4961176;29;20530;-90
2023/02/23 00:41:48;;;;;;;2.27;2.10;;;21.30;63.80;;;;;;4961341;29;20912;-94
2023/02/23 00:44:16;;;;;;;2.80;2.60;;;21.30;63.80;;;;;;4961148;28;20442;-88
2023/02/23 00:46:47;;;;;;;2.70;2.50;;;21.30;63.80;;;;;;4961222;29;20445;-88
2023/02/23 00:49:15;;;;;;;1.80;1.70;;;21.50;64.10;;;;;;4960967;29;20469;-88
2023/02/23 00:51:42;;;;;;;2.53;1.90;;;21.30;63.80;;;;;;4961207;29;20441;-89
2023/02/23 00:54:11;;;;;;;2.40;2.20;;;21.30;63.80;;;;;;4961100;28;20445;-88
2023/02/23 00:56:38;;;;;;;2.50;2.30;;;21.30;63.80;;;;;;4961069;28;20446;-88
2023/02/23 00:59:06;;;;;;;2.20;2.10;;;21.30;63.80;;;;;;4960908;28;20992;-88
2023/02/23 01:01:33;;;;;;;2.10;2.00;;;21.30;63.80;;;;;;4961083;28;20447;-88
2023/02/23 01:04:02;;;;;;;2.30;2.10;;;21.30;63.80;;;;;;4961095;29;20447;-88
2023/02/23 01:06:29;;;;;;;2.47;2.27;;;21.30;63.80;;;;;;4959185;28;20481;-95
2023/02/23 01:08:56;;;;;;;2.13;1.93;;;21.30;63.80;;;;;;4957905;29;20581;-89
2023/02/23 01:11:26;;;;;;;2.43;2.23;;;21.30;63.80;;;;;;4957766;29;20461;-88
2023/02/23 01:13:55;;;;;;;2.13;1.93;;;21.30;63.80;;;;;;4957647;29;20467;-88
2023/02/23 01:16:26;;;;;;;2.60;2.10;;;21.30;63.80;;;;;;4957836;29;20438;-88
2023/02/23 01:18:54;;;;;;;2.70;2.50;;;21.30;63.80;;;;;;4957600;29;20469;-88
2023/02/23 01:21:25;;;;;;;2.67;2.47;;;21.30;63.80;;;;;;4957847;29;20446;-88
2023/02/23 01:23:53;;;;;;;2.57;2.37;;;21.30;63.80;;;;;;4957620;29;20456;-88
2023/02/23 01:26:21;;;;;;;2.23;2.03;;;21.30;63.80;;;;;;4957746;29;20822;-89
2023/02/23 01:28:49;;;;;;;2.80;2.60;;;21.30;63.80;;;;;;4957319;29;20842;-89
2023/02/23 01:31:16;;;;;;;2.90;2.70;;;21.30;63.80;;;;;;4957428;29;20934;-88
2023/02/23 01:33:42;;;;;;;2.70;2.37;;;21.20;63.70;;;;;;4957487;29;20452;-88
2023/02/23 01:36:09;;;;;;;2.00;1.90;;;21.20;63.70;;;;;;4957290;29;20445;-88
2023/02/23 01:38:38;;;;;;;2.60;2.40;;;21.20;63.70;;;;;;4957467;29;20456;-88
2023/02/23 01:41:07;;;;;;;2.23;2.10;;;21.30;64.70;;;;;;4957321;29;20442;-88
2023/02/23 01:43:35;;;;;;;2.20;2.10;;;21.30;63.80;;;;;;4957613;29;20444;-88
2023/02/23 01:46:03;;;;;;;2.43;2.33;;;21.30;63.80;;;;;;4957173;29;20529;-88
2023/02/23 01:48:35;;;;;;;2.37;2.20;;;21.20;63.70;;;;;;4956889;29;20498;-88
2023/02/23 01:51:06;;;;;;;2.23;2.03;;;21.20;63.70;;;;;;4957339;29;20448;-88
2023/02/23 01:53:36;;;;;;;2.57;2.37;;;21.20;63.70;;;;;;4957428;29;20533;-88
2023/02/23 01:56:10;;;;;;;2.50;2.30;;;21.20;63.80;;;;;;4957024;29;20448;-88
2023/02/23 01:58:39;;;;;;;2.10;1.90;;;21.20;63.70;;;;;;4956768;28;20832;-88
2023/02/23 02:01:06;;;;;;;1.63;1.53;;;21.20;63.70;;;;;;4957027;29;20766;-88
2023/02/23 02:03:36;;;;;;;2.10;2.00;;;21.20;63.70;;;;;;4956976;29;20449;-88
2023/02/23 02:06:06;;;;;;;2.50;2.30;;;21.40;64.00;;;;;;4956884;29;20448;-88
2023/02/23 02:08:42;;;;;;;2.20;2.10;;;21.20;63.70;;;;;;4956796;29;20479;-88
2023/02/23 02:11:24;;;;;;;2.30;2.20;;;21.20;63.70;;;;;;4956875;29;20592;-88
2023/02/23 02:13:53;;;;;;;2.53;2.33;;;21.20;63.70;;;;;;4956961;29;20470;-88
2023/02/23 02:16:51;;;;;;;2.20;2.10;;;21.20;63.70;;;;;;4956537;29;20811;-88
2023/02/23 02:19:48;;;;;;;1.77;1.67;;;21.20;63.70;;;;;;4955489;28;20520;-88
2023/02/23 02:23:08;;;;;;;2.13;2.03;;;21.20;63.80;;;;;;4931026;29;20450;-88
2023/02/23 02:26:03;;;;;;;2.40;2.20;;;21.20;63.80;;;;;;4897685;29;20827;-89
2023/02/23 02:28:55;;;;;;;2.23;2.00;;;21.20;63.90;;;;;;4897848;29;20496;-88
2023/02/23 02:32:04;;;;;;;2.40;2.23;;;21.20;64.00;;;;;;4945679;29;20963;-89
2023/02/23 02:34:57;;;;;;;2.30;2.20;;;21.20;63.80;;;;;;4956284;29;20958;-88
2023/02/23 02:37:38;;;;;;;2.67;2.47;;;21.20;63.90;;;;;;4956413;29;20457;-90
2023/02/23 02:40:15;;;;;;;2.40;2.20;;;21.20;63.90;;;;;;4956305;29;20445;-94
2023/02/23 02:42:59;;;;;;;2.67;2.47;;;21.20;63.90;;;;;;4956249;29;20449;-92
2023/02/23 02:45:36;;;;;;;2.03;1.93;;;21.20;63.90;;;;;;4956108;29;20438;-88
2023/02/23 02:48:10;;;;;;;1.93;1.83;;;21.30;63.90;;;;;;4956219;29;20565;-95
2023/02/23 02:50:45;;;;;;;2.63;2.50;;;21.20;63.90;;;;;;4956489;29;20443;-89
2023/02/23 02:53:19;;;;;;;2.27;2.13;;;21.20;63.80;;;;;;4956420;29;20442;-89
2023/02/23 02:55:48;;;;;;;2.43;2.23;;;21.30;64.00;;;;;;4956203;29;20939;-89
2023/02/23 02:58:17;;;;;;;2.47;2.27;;;21.20;63.70;;;;;;4956047;29;20437;-94
2023/02/23 04:19:29;;;;;;;2.47;2.27;;;21.10;63.70;;;;;;4955096;29;20461;-94
2023/02/23 04:21:56;;;;;;;1.90;1.80;;;21.00;63.50;;;;;;4954881;29;20452;-89
2023/02/23 04:24:23;;;;;;;2.13;2.00;;;21.00;63.50;;;;;;4955222;29;20444;-88
2023/02/23 04:26:50;;;;;;;2.20;2.10;;;21.00;63.60;;;;;;4955106;29;20448;-88
2023/02/23 04:29:17;;;;;;;2.07;1.97;;;21.00;63.60;;;;;;4954731;29;20492;-89
2023/02/23 04:31:44;;;;;;;2.73;2.50;;;21.00;63.60;;;;;;4954950;29;20444;-88
2023/02/23 04:34:13;;;;;;;2.37;2.27;;;21.00;63.60;;;;;;4954978;29;20536;-95
2023/02/23 04:36:41;;;;;;;3.03;2.83;;;21.00;63.60;;;;;;4954808;29;20457;-89
2023/02/23 04:39:08;;;;;;;2.53;2.33;;;21.00;63.50;;;;;;4955068;29;20545;-92
2023/02/23 04:41:35;;;;;;;2.40;2.20;;;21.00;63.60;;;;;;4955337;28;20452;-96
2023/02/23 04:44:01;;;;;;;2.40;2.20;;;21.00;63.60;;;;;;4958417;29;20540;-94
2023/02/23 04:46:29;;;;;;;2.30;2.10;;;21.00;63.60;;;;;;4958761;29;20453;-89
2023/02/23 04:48:56;;;;;;;2.60;2.40;;;21.00;63.50;;;;;;4959062;29;20501;-90
2023/02/23 04:51:29;;;;;;;2.27;2.10;;;21.00;63.50;;;;;;4959626;29;20529;-92
2023/02/23 04:53:56;;;;;;;2.60;2.40;;;21.00;63.50;;;;;;4958997;29;20577;-90
2023/02/23 04:56:23;;;;;;;2.00;1.90;;;21.00;63.60;;;;;;4958829;29;20453;-96
2023/02/23 04:58:49;;;;;;;2.80;2.60;;;21.00;63.50;;;;;;4958299;28;20882;-91
2023/02/23 05:01:17;;;;;;;1.90;1.80;;;21.00;63.50;;;;;;4959091;29;20488;-90
2023/02/23 05:03:43;;;;;;;2.40;2.20;;;21.00;63.50;;;;;;4958594;29;20446;-95
2023/02/23 05:06:11;;;;;;;2.00;1.90;;;21.00;63.60;;;;;;4959326;29;20452;-96
2023/02/23 05:08:39;;;;;;;2.47;2.27;;;21.20;64.60;;;;;;4958876;29;20500;-96
2023/02/23 05:11:07;;;;;;;2.10;2.00;;;21.00;63.50;;;;;;4958574;29;20446;-92
2023/02/23 05:13:34;;;;;;;2.10;2.00;;;21.20;63.80;;;;;;4958072;29;20466;-91
2023/02/23 05:16:01;;;;;;;2.60;2.40;;;21.20;63.80;;;;;;4958140;29;20812;-94
2023/02/23 05:18:27;;;;;;;2.67;2.47;;;21.00;63.50;;;;;;4957904;29;20465;-91
2023/02/23 05:21:02;;;;;;;2.30;2.20;;;21.00;63.50;;;;;;4958410;29;20450;-91
2023/02/23 05:23:29;;;;;;;2.47;2.23;;;21.00;63.60;;;;;;4957945;29;20443;-91
2023/02/23 05:26:03;;;;;;;2.50;2.40;;;21.00;63.60;;;;;;4958320;29;20446;-90
2023/02/23 05:28:29;;;;;;;2.40;2.30;;;21.00;63.70;;;;;;4958237;29;20508;-90
2023/02/23 05:30:56;;;;;;;2.37;2.17;;;21.00;63.60;;;;;;4957988;29;20449;-90
2023/02/23 05:33:23;;;;;;;2.50;2.30;;;21.00;63.60;;;;;;4958011;29;20442;-90
2023/02/23 05:35:50;;;;;;;2.47;2.27;;;21.00;63.60;;;;;;4958494;29;20446;-90
2023/02/23 05:38:17;;;;;;;2.23;2.00;;;21.00;63.60;;;;;;4958624;29;20818;-90
2023/02/23 05:40:44;;;;;;;2.40;2.30;;;21.00;63.60;;;;;;4958217;29;20441;-91
2023/02/23 05:43:12;;;;;;;2.17;2.07;;;20.90;63.60;;;;;;4957991;29;20439;-92
2023/02/23 05:45:41;;;;;;;2.70;2.50;;;20.90;63.50;;;;;;4958496;29;20795;-91
2023/02/23 05:48:08;;;;;;;2.10;2.00;;;20.90;63.50;;;;;;4957724;29;20470;-90
2023/02/23 05:50:35;;;;;;;2.33;2.13;;;21.00;63.60;;;;;;4957772;29;20806;-91
2023/02/23 05:53:02;;;;;;;2.97;2.73;;;20.90;63.50;;;;;;4957635;28;20446;-95
2023/02/23 05:55:28;;;;;;;2.00;1.90;;;20.90;63.60;;;;;;4957919;29;20446;-91
2023/02/23 05:57:55;;;;;;;1.90;1.80;;;20.90;63.60;;;;;;4957552;29;21016;-90
2023/02/23 06:00:24;;;;;;;2.73;2.53;;;20.90;63.50;;;;;;4957578;28;20484;-92
2023/02/23 06:02:52;;;;;;;2.30;2.20;;;20.90;63.50;;;;;;4957680;29;20457;-90
2023/02/23 06:05:19;;;;;;;2.60;2.37;;;20.90;63.50;;;;;;4957645;29;20557;-96
2023/02/23 06:07:46;;;;;;;2.50;2.30;;;20.90;63.50;;;;;;4957744;29;20446;-90
2023/02/23 06:10:13;;;;;;;2.30;2.10;;;20.90;63.50;;;;;;4957758;29;20487;-91
2023/02/23 06:12:40;;;;;;;2.47;2.37;;;20.90;64.30;;;;;;4957890;29;20452;-96
2023/02/23 06:15:08;;;;;;;2.83;2.63;;;20.90;63.60;;;;;;4957719;29;20450;-90
2023/02/23 06:17:36;;;;;;;1.93;1.83;;;20.90;63.50;;;;;;4957208;29;20481;-95
2023/02/23 06:20:05;;;;;;;2.63;2.40;;;20.90;63.50;;;;;;4957391;29;20442;-96
2023/02/23 06:22:32;;;;;;;2.63;2.43;;;20.90;63.50;;;;;;4957164;29;20466;-90
2023/02/23 06:24:59;;;;;;;2.23;2.10;;;20.90;63.50;;;;;;4957393;29;20452;-94
2023/02/23 06:27:26;;;;;;;2.37;2.20;;;20.90;63.60;;;;;;4957777;29;20455;-93
2023/02/23 06:29:53;;;;;;;2.80;2.60;;;20.90;63.50;;;;;;4957760;29;20581;-90
2023/02/23 06:32:19;;;;;;;2.63;2.43;;;20.90;63.50;;;;;;4957904;29;20448;-90
2023/02/23 06:34:47;;;;;;;2.70;2.50;;;21.00;63.60;;;;;;4957784;29;20446;-92
2023/02/23 06:37:14;;;;;;;3.57;2.37;;;21.10;63.70;;;;;;4957064;29;20963;-96
2023/02/23 06:39:41;;;;;;;2.10;2.00;;;20.90;63.40;;;;;;4957392;29;20448;-96
2023/02/23 06:42:08;;;;;;;2.77;2.57;;;20.90;63.40;;;;;;4957082;29;20442;-91
2023/02/23 06:44:36;;;;;;;2.90;2.70;;;21.00;63.50;;;;;;4957279;29;20446;-96
2023/02/23 06:47:05;;;;;;;2.43;2.23;;;20.90;63.40;;;;;;4957715;29;20461;-91
2023/02/23 06:49:32;;;;;;;2.77;2.30;;;20.90;63.50;;;;;;4956497;29;20490;-89
2023/02/23 06:52:00;;;;;;;2.60;2.40;;;21.10;63.80;;;;;;4956710;29;20541;-88
2023/02/23 06:54:27;;;;;;;2.60;2.40;;;20.90;63.60;;;;;;4956852;29;20952;-90
2023/02/23 06:56:54;;;;;;;2.50;2.30;;;20.90;63.70;;;;;;4956586;29;20554;-96
2023/02/23 06:59:22;;;;;;;2.57;2.33;;;20.90;63.60;;;;;;4956479;28;20540;-92
2023/02/23 07:01:49;;;;;;;2.97;2.73;;;20.90;63.80;;;;;;4956530;29;20454;-91
2023/02/23 07:04:16;;;;;;;2.73;2.53;;;20.90;63.60;;;;;;4956062;28;20454;-94
2023/02/23 07:06:43;;;;;;;2.40;2.20;;;20.90;63.50;;;;;;4956893;29;20505;-96
2023/02/23 07:09:11;;;;;;;2.87;2.67;;;21.10;64.00;;;;;;4957041;29;20490;-96
2023/02/23 07:11:40;;;;;;;2.90;2.57;;;20.90;64.00;;;;;;4956944;29;20452;-90
2023/02/23 07:14:07;;;;;;;3.13;2.90;;;20.90;64.10;;;;;;4957259;29;20456;-95
2023/02/23 07:16:34;;;;;;;2.93;2.73;;;20.90;64.20;;;;;;4957017;29;20452;-90
2023/02/23 07:19:00;;;;;;;4.40;3.20;;;21.00;64.40;;;;;;4956503;29;20458;-90
2023/02/23 07:21:27;;;;;;;4.43;2.60;;;20.90;64.40;;;;;;4956689;29;20450;-96
2023/02/23 07:23:54;;;;;;;3.50;2.57;;;20.90;64.30;;;;;;4956621;29;20451;-91
2023/02/23 07:26:22;;;;;;;2.40;2.10;;;20.90;64.40;;;;;;4956302;29;20450;-91
2023/02/23 07:28:49;;;;;;;3.23;2.53;;;21.10;64.70;;;;;;4956513;29;20541;-96
2023/02/23 07:31:16;;;;;;;2.50;2.37;;;20.90;64.50;;;;;;4954852;29;20454;-90
2023/02/23 07:33:43;;;;;;;3.07;2.70;;;20.90;64.50;;;;;;4953914;29;20446;-90
2023/02/23 07:36:12;;;;;;;2.80;2.60;;;20.90;64.50;;;;;;4953988;29;20478;-94
2023/02/23 07:38:38;;;;;;;3.30;3.10;;;20.90;64.60;;;;;;4954126;29;20948;-89
2023/02/23 07:41:06;;;;;;;3.10;2.80;;;20.90;64.60;;;;;;4954757;29;20458;-89
2023/02/23 07:43:34;;;;;;;2.77;2.57;;;20.90;64.60;;;;;;4954647;29;20449;-90
2023/02/23 07:46:01;;;;;;;3.00;2.70;;;20.90;64.60;;;;;;4956268;29;20448;-91
2023/02/23 07:48:28;;;;;;;2.70;2.50;;;20.90;65.60;;;;;;4955170;29;20561;-91
2023/02/23 07:50:55;;;;;;;2.80;2.60;;;20.90;64.90;;;;;;4955203;29;20494;-91
2023/02/23 07:53:22;;;;;;;2.20;2.00;;;20.90;64.90;;;;;;4955178;29;20450;-91
2023/02/23 07:55:56;;;;;;;2.80;2.60;;;20.90;64.90;;;;;;4955026;29;20454;-94
2023/02/23 07:58:22;;;;;;;2.33;2.13;;;20.90;65.00;;;;;;4954755;28;20445;-90
2023/02/23 08:00:51;;;;;;;3.00;2.80;;;20.90;65.00;;;;;;4954387;29;20449;-93
2023/02/23 08:03:17;;;;;;;2.97;2.77;;;20.90;64.80;;;;;;4955177;29;20956;-94
2023/02/23 08:05:44;;;;;;;2.60;2.40;;;20.90;64.80;;;;;;4952287;29;20463;-87
2023/02/23 08:08:11;;;;;;;2.50;2.30;;;20.90;64.70;;;;;;4948961;29;20937;-87
2023/02/23 08:10:38;;;;;;;2.63;2.43;;;20.90;64.70;;;;;;4937879;29;20895;-89
2023/02/23 08:13:05;;;;;;;2.67;2.47;;;20.90;64.80;;;;;;4935910;29;20446;-90
2023/02/23 08:15:32;;;;;;;3.07;2.87;;;21.10;65.10;;;;;;4936132;29;20954;-90
2023/02/23 08:18:00;;;;;;;3.73;2.40;;;20.90;65.00;;;;;;4939565;29;20482;-93
2023/02/23 08:20:27;;;;;;;4.03;2.57;;;20.90;65.00;;;;;;4939780;29;20451;-89
2023/02/23 08:22:54;;;;;;;7.00;2.80;;;20.90;65.20;;;;;;4939615;29;20446;-88
2023/02/23 08:25:21;;;;;;;3.20;2.90;;;20.90;65.30;;;;;;4939491;29;20453;-92
2023/02/23 08:27:50;;;;;;;2.80;2.60;;;20.90;65.50;;;;;;4939408;29;20811;-87
2023/02/23 08:30:19;;;;;;;2.63;2.43;;;21.10;65.90;;;;;;4939441;29;20581;-87
2023/02/23 08:32:46;;;;;;;2.13;2.00;;;20.90;65.70;;;;;;4939408;29;20439;-86
2023/02/23 08:35:14;;;;;;;3.23;2.93;;;20.90;65.90;;;;;;4939393;29;20446;-86
2023/02/23 08:37:41;;;;;;;3.10;2.80;;;20.90;65.60;;;;;;4955424;28;20456;-85
2023/02/23 08:40:11;;;;;;;2.80;2.60;;;20.90;65.60;;;;;;4971635;28;20461;-85
2023/02/23 08:42:37;;;;;;;7.60;2.10;;;20.90;65.40;;;;;;4976392;28;20869;-85
2023/02/23 08:45:05;;;;;;;3.00;2.80;;;20.90;65.40;;;;;;4944253;29;20969;-90
2023/02/23 08:47:33;;;;;;;3.33;2.90;;;20.90;65.50;;;;;;4958524;29;20480;-89
2023/02/23 08:50:00;;;;;;;4.47;3.13;;;20.90;65.60;;;;;;4941553;29;20899;-90
2023/02/23 08:52:28;;;;;;;4.73;2.90;;;20.90;65.60;;;;;;4958804;29;20441;-91
2023/02/23 08:54:56;;;;;;;2.57;2.20;;;20.90;65.20;;;;;;4957884;29;20458;-85
2023/02/23 08:57:23;;;;;;;6.93;3.00;;;20.90;65.50;;;;;;4958444;29;20798;-89
2023/02/23 08:59:49;;;;;;;3.30;2.87;;;20.90;65.60;;;;;;4958087;29;20477;-85
2023/02/23 09:02:16;;;;;;;3.47;3.17;;;20.80;65.80;;;;;;4958645;29;20799;-89
2023/02/23 09:04:43;;;;;;;3.27;2.57;;;20.80;65.50;;;;;;4958688;29;20801;-88
2023/02/23 09:07:14;;;;;;;2.87;2.67;;;20.80;65.50;;;;;;4958450;29;20442;-88
2023/02/23 09:09:42;;;;;;;3.30;3.00;;;20.80;65.50;;;;;;4958264;29;20477;-87
2023/02/23 09:12:09;;;;;;;2.80;2.60;;;20.80;65.30;;;;;;4957973;29;20449;-87
2023/02/23 09:14:36;;;;;;;2.93;2.73;;;20.80;65.10;;;;;;4958108;29;20536;-88
2023/02/23 09:17:03;;;;;;;3.20;2.90;;;20.80;65.30;;;;;;4957881;29;20469;-90
2023/02/23 09:19:30;;;;;;;4.47;3.40;;;20.80;65.60;;;;;;4958036;29;20453;-87
2023/02/23 09:21:57;;;;;;;4.27;2.80;;;20.80;65.70;;;;;;4958038;29;20450;-87
2023/02/23 09:24:24;;;;;;;4.27;3.10;;;20.90;66.10;;;;;;4958003;29;20453;-87
2023/02/23 09:26:52;;;;;;;5.53;2.50;;;20.90;66.00;;;;;;4957504;28;20454;-89
2023/02/23 09:29:20;;;;;;;5.13;3.57;;;20.90;66.10;;;;;;4971977;28;20439;-90
2023/02/23 09:31:46;;;;;;;8.03;2.73;;;20.90;66.40;;;;;;4981911;28;20482;-86
2023/02/23 09:34:14;;;;;;;4.73;3.20;;;20.90;66.40;;;;;;4981185;28;20450;-86
2023/02/23 09:36:40;;;;;;;3.57;3.27;;;20.90;66.50;;;;;;4965337;28;20450;-87
2023/02/23 09:39:07;;;;;;;5.63;3.20;;;20.90;66.30;;;;;;4957762;29;20449;-88
2023/02/23 09:41:59;;;;;;;3.87;3.57;;;20.90;66.50;;;;;;4957191;29;20451;-86
2023/02/23 09:44:39;;;;;;;3.70;2.80;;;20.90;66.20;;;;;;4953416;29;20446;-88
2023/02/23 09:47:18;;;;;;;3.10;2.80;;;20.90;65.90;;;;;;4957770;29;20438;-94
2023/02/23 09:49:48;;;;;;;5.40;3.10;;;;;;;;;;4942080;29;20469;-92
2023/02/23 09:52:19;;;;;;;7.07;3.27;;;20.90;74.70;;;;;;4957579;29;20449;-91
2023/02/23 09:54:46;;;;;;;3.70;3.40;;;20.80;75.00;;;;;;4957629;29;20442;-91
2023/02/23 09:57:18;;;;;;;3.63;3.33;;;20.80;66.50;;;;;;4957259;29;20797;-92
2023/02/23 09:59:45;;;;;;;4.03;3.63;;;20.90;66.10;;;;;;4956977;29;21055;-89
2023/02/23 10:02:23;;;;;;;4.30;2.90;;;20.90;66.10;;;;;;4957135;29;20445;-91
2023/02/23 10:04:53;;;;;;;5.43;3.10;;;20.90;66.20;;;;;;4957194;29;20447;-90
2023/02/23 10:07:23;;;;;;;3.43;3.03;;;20.90;66.10;;;;;;4957124;29;20454;-89
2023/02/23 10:10:10;;;;;;;3.20;2.93;;;20.90;66.00;;;;;;4957226;29;20488;-89
2023/02/23 10:12:50;;;;;;;3.00;2.80;;;20.90;66.10;;;;;;4957128;29;20522;-89
2023/02/23 10:15:27;;;;;;;3.50;2.90;;;20.90;66.00;;;;;;4957237;29;20446;-90
2023/02/23 10:18:01;;;;;;;4.07;2.60;;;20.90;66.00;;;;;;4956724;29;21012;-89
2023/02/23 10:20:37;;;;;;;2.93;2.73;;;20.80;65.80;;;;;;4956979;29;20497;-92
2023/02/23 10:23:08;;;;;;;3.27;2.53;;;20.90;65.80;;;;;;4957445;29;20456;-90
2023/02/23 10:25:40;;;;;;;3.00;2.77;;;20.80;65.80;;;;;;4957863;29;20453;-89
2023/02/23 10:28:13;;;;;;;3.73;3.43;;;20.80;65.60;;;;;;4957240;29;20467;-89
2023/02/23 10:30:41;;;;;;;3.17;2.87;;;20.80;65.70;;;;;;4957197;29;20488;-89
2023/02/23 10:33:16;;;;;;;2.40;2.27;;;21.00;65.90;;;;;;4956990;29;20449;-90
2023/02/23 10:35:44;;;;;;;3.10;2.90;;;20.80;65.60;;;;;;4957081;29;20925;-89
2023/02/23 10:38:15;;;;;;;3.33;2.83;;;20.80;65.70;;;;;;4956922;29;20453;-89
2023/02/23 10:40:43;;;;;;;4.00;3.37;;;20.80;65.60;;;;;;4956387;28;20446;-90
2023/02/23 10:43:12;;;;;;;3.40;3.10;;;20.80;65.50;;;;;;4956669;29;20434;-89
2023/02/23 10:45:44;;;;;;;2.70;2.50;;;20.80;65.50;;;;;;4956883;29;20437;-89
2023/02/23 10:48:17;;;;;;;2.67;2.47;;;20.80;65.50;;;;;;4957169;29;20466;-89
2023/02/23 10:50:47;;;;;;;4.27;2.57;;;20.90;65.60;;;;;;4956936;29;20992;-89
2023/02/23 10:53:19;;;;;;;3.93;2.97;;;21.00;65.50;;;;;;4956881;29;21032;-89
2023/02/23 10:55:47;;;;;;;3.23;2.93;;;20.80;65.30;;;;;;4956799;29;20450;-92
2023/02/23 10:58:17;;;;;;;2.93;2.70;;;20.80;65.50;;;;;;4956812;29;20442;-89
2023/02/23 11:00:54;;;;;;;2.63;2.30;;;20.80;65.40;;;;;;4956510;29;20478;-89
2023/02/23 11:03:27;;;;;;;4.33;3.07;;;20.80;65.40;;;;;;4956908;29;20446;-89
2023/02/23 11:05:54;;;;;;;3.03;2.83;;;20.80;65.30;;;;;;4957223;29;20807;-89
2023/02/23 11:08:25;;;;;;;2.80;2.60;;;20.80;65.50;;;;;;4956785;29;20464;-89
2023/02/23 11:11:07;;;;;;;2.20;2.10;;;20.80;65.50;;;;;;4957180;29;20509;-90
2023/02/23 11:13:38;;;;;;;3.83;3.27;;;20.80;65.50;;;;;;4957414;29;20450;-89
2023/02/23 11:16:09;;;;;;;2.60;2.40;;;20.80;65.50;;;;;;4957511;29;20453;-89
2023/02/23 11:18:37;;;;;;;3.80;2.57;;;20.70;65.40;;;;;;4957225;29;20470;-89
2023/02/23 11:21:11;;;;;;;3.20;2.37;;;20.70;65.40;;;;;;4957340;29;20451;-89
2023/02/23 11:23:39;;;;;;;2.80;2.60;;;20.80;65.40;;;;;;4957342;29;20457;-91
2023/02/23 11:26:21;;;;;;;2.47;2.27;;;20.80;65.40;;;;;;4961561;28;20438;-91
2023/02/23 11:28:52;;;;;;;3.17;2.50;;;20.70;65.30;;;;;;4978704;28;20446;-89
2023/02/23 11:31:21;;;;;;;2.87;2.53;;;20.80;65.40;;;;;;4970353;28;20549;-88
2023/02/23 11:33:49;;;;;;;2.33;2.13;;;20.70;65.10;;;;;;4955748;29;20501;-88
2023/02/23 11:36:25;;;;;;;2.53;2.33;;;20.70;65.20;;;;;;4922616;29;20922;-88
2023/02/23 11:39:02;;;;;;;2.63;2.23;;;20.70;65.20;;;;;;4955695;29;20451;-88
2023/02/23 11:41:30;;;;;;;2.87;2.57;;;20.70;65.20;;;;;;4955530;29;20469;-88
2023/02/23 11:44:01;;;;;;;1.90;1.80;;;20.70;65.00;;;;;;4955413;29;20450;-89
2023/02/23 11:46:30;;;;;;;3.40;1.90;;;20.70;65.00;;;;;;4955493;29;20796;-88
2023/02/23 11:48:59;;;;;;;2.30;2.10;;;20.70;65.00;;;;;;4955423;29;20464;-88
2023/02/23 11:51:29;;;;;;;2.53;2.33;;;20.70;65.10;;;;;;4954959;29;20489;-88
2023/02/23 11:53:56;;;;;;;1.93;1.83;;;20.70;64.90;;;;;;4955585;29;20449;-88
2023/02/23 11:56:25;;;;;;;2.50;2.30;;;20.70;64.90;;;;;;4955230;29;20446;-90
2023/02/23 11:58:56;;;;;;;3.03;2.83;;;20.70;65.00;;;;;;4953876;28;20526;-88
2023/02/23 12:01:38;;;;;;;2.47;2.30;;;20.70;64.80;;;;;;4955643;29;20449;-89
2023/02/23 12:04:06;;;;;;;2.93;2.60;;;20.70;65.00;;;;;;4955015;29;20452;-85
2023/02/23 12:06:35;;;;;;;2.20;2.00;;;20.70;64.80;;;;;;4955357;29;20446;-85
2023/02/23 12:09:17;;;;;;;3.37;3.07;;;20.70;64.70;;;;;;4955292;29;20456;-88
2023/02/23 12:11:48;;;;;;;3.83;2.63;;;20.70;64.40;;;;;;4955099;29;20974;-83
2023/02/23 12:14:26;;;;;;;2.37;2.27;;;20.70;64.70;;;;;;4955283;29;20442;-87
2023/02/23 12:16:59;;;;;;;2.77;2.57;;;20.70;64.60;;;;;;4955541;29;20438;-87
2023/02/23 12:19:31;;;;;;;2.60;2.40;;;20.70;64.70;;;;;;4955588;29;20933;-88
2023/02/23 12:22:03;;;;;;;3.30;2.40;;;20.70;64.70;;;;;;4955391;29;20462;-88
2023/02/23 12:24:42;;;;;;;3.93;2.43;;;20.70;64.80;;;;;;4955513;29;20847;-87
2023/02/23 12:27:13;;;;;;;2.50;2.30;;;20.70;64.70;;;;;;4955141;29;20461;-86
2023/02/23 12:29:52;;;;;;;2.30;2.20;;;20.70;64.60;;;;;;4954939;29;20446;-85
2023/02/23 12:32:28;;;;;;;2.27;2.10;;;20.70;64.60;;;;;;4955158;29;20485;-87
2023/02/23 12:34:58;;;;;;;2.47;2.30;;;20.80;65.00;;;;;;4954922;29;20441;-84
2023/02/23 12:37:35;;;;;;;2.50;2.30;;;20.70;64.70;;;;;;4954821;29;20446;-87
2023/02/23 12:40:12;;;;;;;1.90;1.80;;;20.70;64.70;;;;;;4954945;29;20481;-84
2023/02/23 12:42:46;;;;;;;7.60;2.30;;;20.70;64.70;;;;;;4954844;29;20453;-87
2023/02/23 12:45:20;;;;;;;2.90;2.20;;;20.70;64.70;;;;;;4954943;29;20458;-84
2023/02/23 12:47:53;;;;;;;3.13;2.30;;;20.70;64.80;;;;;;4954722;29;20944;-84
2023/02/23 12:50:28;;;;;;;2.73;2.53;;;20.70;64.80;;;;;;4954726;29;20465;-85
2023/02/23 12:53:00;;;;;;;2.50;2.30;;;20.70;64.90;;;;;;4954902;29;20445;-84
2023/02/23 12:55:37;;;;;;;2.00;1.80;;;20.70;64.80;;;;;;4954793;29;20501;-85
2023/02/23 12:58:08;;;;;;;2.63;2.43;;;20.70;64.60;;;;;;4954648;29;20948;-84
2023/02/23 13:00:45;;;;;;;2.47;2.27;;;20.80;64.90;;;;;;4954654;29;20477;-87
2023/02/23 13:03:48;;;;;;;2.03;1.83;;;20.70;64.70;;;;;;4956123;28;20925;-87
2023/02/23 13:06:22;;;;;;;2.30;2.10;;;20.70;64.80;;;;;;4958339;29;20444;-84
2023/02/23 13:09:02;;;;;;;3.10;2.80;;;20.70;64.70;;;;;;4958070;29;20447;-84
2023/02/23 13:11:54;;;;;;;2.90;2.37;;;20.70;64.70;;;;;;4957992;29;20499;-87
2023/02/23 13:14:29;;;;;;;2.83;2.63;;;20.70;64.60;;;;;;4945568;29;20463;-87
2023/02/23 13:17:00;;;;;;;7.83;1.90;;;20.70;64.70;;;;;;4957910;29;20442;-86
2023/02/23 13:19:35;;;;;;;2.30;2.10;;;20.70;64.90;;;;;;4958120;29;20450;-87
2023/02/23 13:22:11;;;;;;;4.23;2.83;;;20.70;64.90;;;;;;4957733;29;20451;-84
2023/02/23 13:24:42;;;;;;;2.70;2.47;;;20.70;64.90;;;;;;4957946;29;20520;-83
2023/02/23 13:27:15;;;;;;;2.63;2.43;;;20.70;64.90;;;;;;4957708;29;20941;-87
2023/02/23 13:29:43;;;;;;;5.80;2.50;;;20.70;65.10;;;;;;4957749;29;20450;-87
2023/02/23 13:32:12;;;;;;;10.83;2.40;;;20.70;65.20;;;;;;4957593;29;20493;-85
2023/02/23 13:34:44;;;;;;;2.53;2.33;;;20.70;65.40;;;;;;4957827;29;20449;-87
2023/02/23 13:37:16;;;;;;;3.90;2.13;;;20.70;65.10;;;;;;4957451;29;20468;-87
2023/02/23 13:39:57;;;;;;;2.77;2.33;;;20.80;65.00;;;;;;4957820;29;20451;-87
2023/02/23 13:42:36;;;;;;;2.63;2.20;;;20.70;64.90;;;;;;4957584;29;20445;-87
2023/02/23 13:45:24;;;;;;;3.83;2.30;;;20.70;64.90;;;;;;4957626;29;20457;-84
2023/02/23 13:47:56;;;;;;;6.23;2.20;;;20.70;65.00;;;;;;4957880;29;20929;-84
2023/02/23 13:50:31;;;;;;;3.10;2.20;;;20.60;65.00;;;;;;4957998;29;20968;-86
2023/02/23 13:53:03;;;;;;;2.13;2.03;;;20.60;64.80;;;;;;4957393;29;20480;-87
2023/02/23 13:55:36;;;;;;;1.93;1.83;;;20.80;65.10;;;;;;4957393;29;20449;-85
2023/02/23 13:58:06;;;;;;;2.40;2.20;;;20.60;64.90;;;;;;4957314;29;20435;-84
2023/02/23 14:00:33;;;;;;;2.23;2.03;;;20.60;65.00;;;;;;4961752;28;20493;-84
2023/02/23 14:03:05;;;;;;;2.57;1.70;;;20.60;65.10;;;;;;4971808;29;20448;-84
2023/02/23 14:05:43;;;;;;;3.00;2.47;;;20.70;65.10;;;;;;4966331;29;20442;-84
2023/02/23 14:08:22;;;;;;;2.60;2.40;;;20.60;65.00;;;;;;4967551;29;20442;-85
2023/02/23 14:10:51;;;;;;;4.20;2.50;;;20.60;65.00;;;;;;4958749;29;20441;-84
2023/02/23 14:13:29;;;;;;;2.77;2.40;;;20.60;64.80;;;;;;4960171;28;20450;-81
2023/02/23 14:16:16;;;;;;;2.50;2.30;;;20.60;65.10;;;;;;4964502;29;20476;-84
2023/02/23 14:19:31;;;;;;;2.50;2.30;;;20.60;64.90;;;;;;4960399;29;20446;-84
2023/02/23 14:22:04;;;;;;;2.70;2.27;;;20.60;65.00;;;;;;4956613;29;20449;-84
2023/02/23 14:24:31;;;;;;;2.40;2.20;;;20.60;65.10;;;;;;4956898;29;20453;-84
2023/02/23 14:27:22;;;;;;;2.13;1.93;;;20.60;65.00;;;;;;4956725;29;20442;-87